createdAt,value
2023-05-25T00:01:05.566Z,7.13
2023-05-25T00:03:09.903Z,7.77
2023-05-25T00:05:12.813Z,7.20
2023-05-25T00:07:16.204Z,8.00
2023-05-25T00:09:18.259Z,7.80
2023-05-25T00:11:23.324Z,8.03
2023-05-25T00:13:25.531Z,8.10
2023-05-25T00:15:27.611Z,7.97
2023-05-25T00:17:31.987Z,7.63
2023-05-25T00:19:34.253Z,8.27
2023-05-25T00:21:38.263Z,6.47
2023-05-25T00:23:40.494Z,7.17
2023-05-25T00:25:43.002Z,6.27
2023-05-25T00:27:45.311Z,7.50
2023-05-25T00:29:47.328Z,6.97
2023-05-25T00:31:50.873Z,6.43
2023-05-25T00:33:54.128Z,6.60
2023-05-25T00:35:57.257Z,6.53
2023-05-25T00:37:59.539Z,7.53
2023-05-25T00:40:01.831Z,7.10
2023-05-25T00:42:04.371Z,6.27
2023-05-25T00:44:06.407Z,7.33
2023-05-25T00:46:10.553Z,6.70
2023-05-25T00:48:12.711Z,5.57
2023-05-25T00:50:15.295Z,7.50
2023-05-25T00:52:17.445Z,6.90
2023-05-25T00:54:20.297Z,8.10
2023-05-25T00:56:24.884Z,8.40
2023-05-25T00:58:27.864Z,7.80
2023-05-25T01:00:31.132Z,7.00
2023-05-25T01:02:33.650Z,7.20
2023-05-25T01:04:39.774Z,7.50
2023-05-25T01:06:44.595Z,7.60
2023-05-25T01:08:52.807Z,7.47
2023-05-25T01:10:55.677Z,8.50
2023-05-25T01:12:59.163Z,8.83
2023-05-25T01:15:02.289Z,7.80
2023-05-25T01:17:04.695Z,7.57
2023-05-25T01:19:07.062Z,7.90
2023-05-25T01:21:20.308Z,7.10
2023-05-25T01:23:28.352Z,8.37
2023-05-25T01:25:37.531Z,8.07
2023-05-25T01:27:48.013Z,8.40
2023-05-25T01:29:50.512Z,8.70
2023-05-25T01:31:54.410Z,7.60
2023-05-25T01:33:56.515Z,7.53
2023-05-25T01:36:00.227Z,8.27
2023-05-25T01:38:02.339Z,8.90
2023-05-25T01:40:08.628Z,8.73
2023-05-25T01:42:10.898Z,7.90
2023-05-25T01:44:13.100Z,7.30
2023-05-25T01:46:26.855Z,8.73
2023-05-25T01:48:31.096Z,7.87
2023-05-25T01:50:37.304Z,8.13
2023-05-25T01:52:45.427Z,8.30
2023-05-25T01:54:53.238Z,8.33
2023-05-25T01:56:58.001Z,8.33
2023-05-25T01:59:02.068Z,8.17
2023-05-25T02:01:04.827Z,7.93
2023-05-25T02:03:06.959Z,7.77
2023-05-25T02:05:09.636Z,8.47
2023-05-25T02:07:11.705Z,8.70
2023-05-25T02:09:13.806Z,8.33
2023-05-25T02:11:16.710Z,7.70
2023-05-25T02:13:20.787Z,8.33
2023-05-25T02:15:22.993Z,8.33
2023-05-25T02:17:28.735Z,8.60
2023-05-25T02:19:30.847Z,9.30
2023-05-25T02:21:32.891Z,8.20
2023-05-25T02:23:35.003Z,8.50
2023-05-25T02:25:37.234Z,9.23
2023-05-25T02:27:39.286Z,9.07
2023-05-25T02:29:42.129Z,8.30
2023-05-25T02:31:44.309Z,8.43
2023-05-25T02:33:46.480Z,11.23
2023-05-25T02:35:49.541Z,8.47
2023-05-25T02:37:51.782Z,7.90
2023-05-25T02:39:53.860Z,10.03
2023-05-25T02:41:56.203Z,8.60
2023-05-25T02:43:59.407Z,9.50
2023-05-25T02:46:01.778Z,9.43
2023-05-25T02:48:04.396Z,9.67
2023-05-25T02:50:08.635Z,10.37
2023-05-25T02:52:16.689Z,8.37
2023-05-25T02:54:18.916Z,8.00
2023-05-25T02:56:22.831Z,9.37
2023-05-25T02:58:25.418Z,8.93
2023-05-25T03:00:42.912Z,8.30
2023-05-25T03:02:46.839Z,8.50
2023-05-25T03:04:53.899Z,9.03
2023-05-25T03:06:56.548Z,7.87
2023-05-25T03:08:58.807Z,9.10
2023-05-25T03:11:01.095Z,7.93
2023-05-25T03:13:03.290Z,8.50
2023-05-25T03:15:06.034Z,7.80
2023-05-25T03:17:09.061Z,8.90
2023-05-25T03:19:12.383Z,8.93
2023-05-25T03:21:14.579Z,8.80
2023-05-25T03:23:16.704Z,9.90
2023-05-25T03:25:18.745Z,10.23
2023-05-25T03:27:21.179Z,9.87
2023-05-25T03:29:24.023Z,9.00
2023-05-25T03:31:26.194Z,8.93
2023-05-25T03:33:28.551Z,10.93
2023-05-25T03:35:30.753Z,10.30
2023-05-25T03:37:32.947Z,13.23
2023-05-25T03:39:35.012Z,11.50
2023-05-25T03:41:37.082Z,11.47
2023-05-25T03:43:39.116Z,11.20
2023-05-25T03:45:43.309Z,11.40
2023-05-25T03:47:45.765Z,13.37
2023-05-25T03:49:48.646Z,13.40
2023-05-25T03:51:50.784Z,13.30
2023-05-25T03:53:52.925Z,15.27
2023-05-25T03:55:55.068Z,14.27
2023-05-25T03:57:57.257Z,14.87
2023-05-25T03:59:59.410Z,15.80
2023-05-25T04:02:01.447Z,15.37
2023-05-25T04:04:04.033Z,16.27
2023-05-25T04:06:06.756Z,14.33
2023-05-25T04:08:09.951Z,17.63
2023-05-25T04:10:12.212Z,16.27
2023-05-25T04:12:14.915Z,16.00
2023-05-25T04:14:17.034Z,17.73
2023-05-25T04:16:19.330Z,18.47
2023-05-25T04:18:21.402Z,19.00
2023-05-25T04:20:24.453Z,17.23
2023-05-25T04:22:26.669Z,19.13
2023-05-25T04:24:29.810Z,19.37
2023-05-25T04:26:32.062Z,18.00
2023-05-25T04:28:38.296Z,18.33
2023-05-25T04:31:03.847Z,17.43
2023-05-25T04:33:30.089Z,17.63
2023-05-25T04:35:38.077Z,17.13
2023-05-25T04:37:40.781Z,18.63
2023-05-25T04:39:43.233Z,17.47
2023-05-25T04:41:46.818Z,18.10
2023-05-25T04:44:05.833Z,16.60
2023-05-25T04:46:11.748Z,19.20
2023-05-25T04:48:13.929Z,19.60
2023-05-25T04:50:16.171Z,18.17
2023-05-25T04:52:18.324Z,19.87
2023-05-25T04:54:20.937Z,20.70
2023-05-25T04:56:25.796Z,20.97
2023-05-25T04:58:29.534Z,19.17
2023-05-25T05:00:34.341Z,20.53
2023-05-25T05:02:37.699Z,22.83
2023-05-25T05:04:41.357Z,17.70
2023-05-25T05:06:44.342Z,21.27
2023-05-25T05:08:52.581Z,19.67
2023-05-25T05:10:54.765Z,21.10
2023-05-25T05:12:58.426Z,19.53
2023-05-25T05:15:00.604Z,19.47
2023-05-25T05:17:03.485Z,22.30
2023-05-25T05:19:05.866Z,20.20
2023-05-25T05:21:08.139Z,19.33
2023-05-25T05:23:11.685Z,21.67
2023-05-25T05:25:13.791Z,22.87
2023-05-25T05:27:16.676Z,23.83
2023-05-25T05:29:22.568Z,24.43
2023-05-25T05:31:25.395Z,22.30
2023-05-25T05:33:27.943Z,20.00
2023-05-25T05:35:30.159Z,21.03
2023-05-25T05:37:41.201Z,20.93
2023-05-25T05:39:43.371Z,20.07
2023-05-25T05:41:45.726Z,21.83
2023-05-25T05:43:48.699Z,20.43
2023-05-25T05:45:50.855Z,20.00
2023-05-25T05:47:53.060Z,20.50
2023-05-25T05:49:56.432Z,21.00
2023-05-25T05:51:59.388Z,20.80
2023-05-25T05:54:02.203Z,20.10
2023-05-25T05:56:04.789Z,19.60
2023-05-25T05:58:07.052Z,21.10
2023-05-25T06:00:09.733Z,20.77
2023-05-25T06:02:18.094Z,21.73
2023-05-25T06:04:20.464Z,19.30
2023-05-25T06:06:22.613Z,18.70
2023-05-25T06:08:24.750Z,19.97
2023-05-25T06:10:28.296Z,19.90
2023-05-25T06:12:30.515Z,20.13
2023-05-25T06:14:32.589Z,18.60
2023-05-25T06:16:37.634Z,20.00
2023-05-25T06:18:39.886Z,21.50
2023-05-25T06:20:42.436Z,19.17
2023-05-25T06:22:45.244Z,20.07
2023-05-25T06:24:47.426Z,19.17
2023-05-25T06:26:49.768Z,20.47
2023-05-25T06:28:52.086Z,21.17
2023-05-25T06:30:54.203Z,21.23
2023-05-25T06:32:56.980Z,20.53
2023-05-25T06:34:59.070Z,19.60
2023-05-25T06:37:01.890Z,20.73
2023-05-25T06:39:04.129Z,20.10
2023-05-25T06:41:07.472Z,19.93
2023-05-25T06:43:09.551Z,21.30
2023-05-25T06:45:30.496Z,20.00
2023-05-25T06:47:32.686Z,21.00
2023-05-25T06:49:34.828Z,20.33
2023-05-25T06:51:37.511Z,20.17
2023-05-25T06:53:40.036Z,20.37
2023-05-25T06:55:42.564Z,19.20
2023-05-25T06:57:44.854Z,20.53
2023-05-25T06:59:46.908Z,20.20
2023-05-25T07:01:49.017Z,20.10
2023-05-25T07:03:51.142Z,21.23
2023-05-25T07:05:53.148Z,20.83
2023-05-25T07:07:55.344Z,23.20
2023-05-25T07:09:57.469Z,23.50
2023-05-25T07:11:59.600Z,21.00
2023-05-25T07:14:01.861Z,23.60
2023-05-25T07:16:04.087Z,22.93
2023-05-25T07:18:06.383Z,20.77
2023-05-25T07:20:09.027Z,23.40
2023-05-25T07:22:11.244Z,21.63
2023-05-25T07:24:13.396Z,21.90
2023-05-25T07:26:15.760Z,21.80
2023-05-25T07:28:18.078Z,23.23
2023-05-25T07:30:20.468Z,20.43
2023-05-25T07:32:22.596Z,21.53
2023-05-25T07:34:25.822Z,20.90
2023-05-25T07:36:29.995Z,22.97
2023-05-25T07:38:32.001Z,22.60
2023-05-25T07:40:34.097Z,21.90
2023-05-25T07:42:36.375Z,20.80
2023-05-25T07:44:38.498Z,22.70
2023-05-25T07:46:40.903Z,22.63
2023-05-25T07:48:43.041Z,21.00
2023-05-25T07:50:45.332Z,22.23
2023-05-25T07:52:47.715Z,23.77
2023-05-25T07:54:50.015Z,23.20
2023-05-25T07:56:52.250Z,22.67
2023-05-25T07:58:54.559Z,22.73
2023-05-25T08:00:56.836Z,23.30
2023-05-25T08:02:59.176Z,21.67
2023-05-25T08:05:05.520Z,22.10
2023-05-25T08:07:07.751Z,21.57
2023-05-25T08:09:09.963Z,22.20
2023-05-25T08:11:12.067Z,21.33
2023-05-25T08:13:14.101Z,22.00
2023-05-25T08:15:16.734Z,20.77
2023-05-25T08:17:18.973Z,18.93
2023-05-25T08:19:21.261Z,19.70
2023-05-25T08:21:23.293Z,19.90
2023-05-25T08:23:25.453Z,19.13
2023-05-25T08:25:27.576Z,18.90
2023-05-25T08:27:29.683Z,19.20
2023-05-25T08:29:31.789Z,17.40
2023-05-25T08:31:34.196Z,16.17
2023-05-25T08:33:37.805Z,15.60
2023-05-25T08:35:42.854Z,16.03
2023-05-25T08:37:45.642Z,16.23
2023-05-25T08:39:47.856Z,15.13
2023-05-25T08:41:50.429Z,16.23
2023-05-25T08:43:52.637Z,15.07
2023-05-25T08:45:58.318Z,14.90
2023-05-25T08:48:01.822Z,15.80
2023-05-25T08:50:04.971Z,15.27
2023-05-25T08:52:10.936Z,15.93
2023-05-25T08:54:13.990Z,14.70
2023-05-25T08:56:26.265Z,14.93
2023-05-25T08:58:33.450Z,14.10
2023-05-25T09:00:41.021Z,13.37
2023-05-25T09:02:51.662Z,13.13
2023-05-25T09:04:55.047Z,12.60
2023-05-25T09:07:09.483Z,14.40
2023-05-25T09:09:12.882Z,12.90
2023-05-25T09:11:17.425Z,12.50
2023-05-25T09:13:22.865Z,13.67
2023-05-25T09:15:25.525Z,12.73
2023-05-25T09:17:27.894Z,13.03
2023-05-25T09:19:30.198Z,11.70
2023-05-25T09:21:32.579Z,11.20
2023-05-25T09:23:35.651Z,11.43
2023-05-25T09:25:38.371Z,12.50
2023-05-25T09:27:41.409Z,11.73
2023-05-25T09:29:43.731Z,12.50
2023-05-25T09:31:46.134Z,12.13
2023-05-25T09:33:48.386Z,10.80
2023-05-25T09:35:51.579Z,10.87
2023-05-25T09:37:55.495Z,8.80
2023-05-25T09:39:57.891Z,9.47
2023-05-25T09:42:00.126Z,10.30
2023-05-25T09:44:11.200Z,11.33
2023-05-25T09:46:14.410Z,10.97
2023-05-25T09:48:17.984Z,12.20
2023-05-25T09:50:21.343Z,10.20
2023-05-25T09:52:23.920Z,11.30
2023-05-25T09:54:27.088Z,8.37
2023-05-25T09:56:31.836Z,8.30
2023-05-25T09:58:34.072Z,6.90
2023-05-25T10:00:36.607Z,6.63
2023-05-25T10:02:39.163Z,7.90
2023-05-25T10:04:41.866Z,7.53
2023-05-25T10:06:45.931Z,8.47
2023-05-25T10:08:49.315Z,8.80
2023-05-25T10:10:51.633Z,8.97
2023-05-25T10:12:55.135Z,9.00
2023-05-25T10:14:59.493Z,8.50
2023-05-25T10:17:02.057Z,8.50
2023-05-25T10:19:14.839Z,7.37
2023-05-25T10:21:18.618Z,7.97
2023-05-25T10:23:21.864Z,6.70
2023-05-25T10:25:29.430Z,7.67
2023-05-25T10:27:39.864Z,5.77
2023-05-25T10:29:42.566Z,6.37
2023-05-25T10:31:45.634Z,7.03
2023-05-25T10:33:51.909Z,5.87
2023-05-25T10:36:03.192Z,6.90
2023-05-25T10:38:12.813Z,6.17
2023-05-25T10:40:15.629Z,6.10
2023-05-25T10:42:19.083Z,5.67
2023-05-25T10:44:21.630Z,6.33
2023-05-25T10:46:23.929Z,5.53
2023-05-25T10:48:36.500Z,6.50
2023-05-25T10:50:38.959Z,7.07
2023-05-25T10:52:41.172Z,6.97
2023-05-25T10:54:44.491Z,6.67
2023-05-25T10:57:22.942Z,7.70
2023-05-25T10:59:27.989Z,6.63
2023-05-25T11:01:33.541Z,7.50
2023-05-25T11:03:45.599Z,6.30
2023-05-25T11:05:50.806Z,6.67
2023-05-25T11:08:00.757Z,6.90
2023-05-25T11:10:03.583Z,6.63
2023-05-25T11:12:06.672Z,6.60
2023-05-25T11:14:31.825Z,6.23
2023-05-25T11:16:36.285Z,6.83
2023-05-25T11:18:40.777Z,6.73
2023-05-25T11:20:43.274Z,6.20
2023-05-25T11:22:45.663Z,6.40
2023-05-25T11:24:48.760Z,6.73
2023-05-25T11:26:58.860Z,5.80
2023-05-25T11:29:12.856Z,6.83
2023-05-25T11:31:15.198Z,6.20
2023-05-25T11:33:21.852Z,5.37
2023-05-25T11:35:26.577Z,5.30
2023-05-25T11:37:31.480Z,6.00
2023-05-25T11:39:34.131Z,5.57
2023-05-25T11:41:36.899Z,5.93
2023-05-25T11:43:40.412Z,6.73
2023-05-25T11:45:42.631Z,6.20
2023-05-25T11:47:44.850Z,6.50
2023-05-25T11:49:49.700Z,6.30
2023-05-25T11:51:52.079Z,5.77
2023-05-25T11:53:54.649Z,6.07
2023-05-25T11:56:07.063Z,5.60
2023-05-25T11:58:10.516Z,6.40
2023-05-25T12:00:13.593Z,5.73
2023-05-25T12:02:16.626Z,6.70
2023-05-25T12:04:19.669Z,5.53
2023-05-25T12:06:28.428Z,5.07
2023-05-25T12:08:34.742Z,6.17
2023-05-25T12:10:50.155Z,6.20
2023-05-25T12:12:53.187Z,6.23
2023-05-25T12:14:57.149Z,5.33
2023-05-25T12:17:00.946Z,5.83
2023-05-25T12:19:03.314Z,7.00
2023-05-25T12:21:08.354Z,5.87
2023-05-25T12:23:11.101Z,6.50
2023-05-25T12:25:14.490Z,5.50
2023-05-25T12:27:18.191Z,6.33
2023-05-25T12:29:20.723Z,4.93
2023-05-25T12:31:24.337Z,7.30
2023-05-25T12:33:26.747Z,6.83
2023-05-25T12:35:29.642Z,5.67
2023-05-25T12:37:32.821Z,5.57
2023-05-25T12:39:38.998Z,5.90
2023-05-25T12:41:54.305Z,5.87
2023-05-25T12:43:57.596Z,5.17
2023-05-25T12:46:00.157Z,5.00
2023-05-25T12:48:02.583Z,5.47
2023-05-25T12:50:13.577Z,5.17
2023-05-25T12:52:43.224Z,5.70
2023-05-25T12:54:46.744Z,5.80
2023-05-25T12:56:58.468Z,5.27
2023-05-25T12:59:14.927Z,5.70
2023-05-25T13:01:17.332Z,5.90
2023-05-25T13:03:20.188Z,5.93
2023-05-25T13:05:26.953Z,5.70
2023-05-25T13:07:30.220Z,5.90
2023-05-25T13:09:33.055Z,5.83
2023-05-25T13:11:35.413Z,6.40
2023-05-25T13:13:38.031Z,5.70
2023-05-25T13:15:40.199Z,5.80
2023-05-25T13:17:43.808Z,6.70
2023-05-25T13:19:46.130Z,4.97
2023-05-25T13:21:49.528Z,6.53
2023-05-25T13:23:51.787Z,6.17
2023-05-25T13:25:54.066Z,5.90
2023-05-25T13:27:58.148Z,5.83
2023-05-25T13:30:00.573Z,5.23
2023-05-25T13:32:02.884Z,5.40
2023-05-25T13:34:05.158Z,5.90
2023-05-25T13:36:10.545Z,5.50
2023-05-25T13:38:14.516Z,5.30
2023-05-25T13:40:18.037Z,5.40
2023-05-25T13:42:20.405Z,5.00
2023-05-25T13:44:22.697Z,5.20
2023-05-25T13:46:34.057Z,5.00
2023-05-25T13:48:37.182Z,4.83
2023-05-25T13:50:39.455Z,4.90
2023-05-25T13:52:41.842Z,5.00
2023-05-25T13:54:44.205Z,4.73
2023-05-25T13:56:46.444Z,5.60
2023-05-25T13:58:48.685Z,4.87
2023-05-25T14:00:56.769Z,5.17
2023-05-25T14:02:59.116Z,5.03
2023-05-25T14:05:01.435Z,4.77
2023-05-25T14:07:04.056Z,6.50
2023-05-25T14:09:07.327Z,5.30
2023-05-25T14:11:09.570Z,6.33
2023-05-25T14:13:12.206Z,5.43
2023-05-25T14:15:14.425Z,5.13
2023-05-25T14:17:16.660Z,5.10
2023-05-25T14:19:18.860Z,4.47
2023-05-25T14:21:21.712Z,4.70
2023-05-25T14:23:24.086Z,5.40
2023-05-25T14:25:26.299Z,5.10
2023-05-25T14:27:28.560Z,5.60
2023-05-25T14:29:30.879Z,5.10
2023-05-25T14:31:33.181Z,4.30
2023-05-25T14:33:35.384Z,5.93
2023-05-25T14:35:37.631Z,5.27
2023-05-25T14:37:39.823Z,5.23
2023-05-25T14:39:42.105Z,5.73
2023-05-25T14:41:44.435Z,6.00
2023-05-25T14:43:46.674Z,4.93
2023-05-25T14:45:48.866Z,5.10
2023-05-25T14:47:57.748Z,5.00
2023-05-25T14:50:07.212Z,5.50
2023-05-25T14:52:09.460Z,5.00
2023-05-25T14:54:13.645Z,5.83
2023-05-25T14:56:19.479Z,5.07
2023-05-25T14:58:21.812Z,5.03
2023-05-25T15:00:24.089Z,6.23
2023-05-25T15:02:29.593Z,4.70
2023-05-25T15:04:32.155Z,5.00
2023-05-25T15:06:34.845Z,4.70
2023-05-25T15:08:37.750Z,4.80
2023-05-25T15:10:40.123Z,4.77
2023-05-25T15:12:42.368Z,4.93
2023-05-25T15:14:44.608Z,5.27
2023-05-25T15:16:47.221Z,4.90
2023-05-25T15:18:49.873Z,5.70
2023-05-25T15:20:52.934Z,4.50
2023-05-25T15:22:55.395Z,3.63
2023-05-25T15:24:57.595Z,5.27
2023-05-25T15:26:59.821Z,4.10
2023-05-25T15:29:02.122Z,4.97
2023-05-25T15:31:04.577Z,5.00
2023-05-25T15:33:06.816Z,4.70
2023-05-25T15:35:09.362Z,4.10
2023-05-25T15:37:14.002Z,4.80
2023-05-25T15:39:17.733Z,4.90
2023-05-25T15:41:19.987Z,4.20
2023-05-25T15:43:22.194Z,5.07
2023-05-25T15:45:25.127Z,4.00
2023-05-25T15:47:27.385Z,3.77
2023-05-25T15:49:29.658Z,4.30
2023-05-25T15:51:32.788Z,4.50
2023-05-25T15:53:35.216Z,3.80
2023-05-25T15:55:37.399Z,4.17
2023-05-25T15:57:39.672Z,4.30
2023-05-25T15:59:41.918Z,3.83
2023-05-25T16:01:44.300Z,3.67
2023-05-25T16:03:48.265Z,3.70
2023-05-25T16:05:50.594Z,4.30
2023-05-25T16:07:52.820Z,4.43
2023-05-25T16:09:55.040Z,4.10
2023-05-25T16:11:58.120Z,4.40
2023-05-25T16:14:00.258Z,4.57
2023-05-25T16:16:02.608Z,3.83
2023-05-25T16:18:04.919Z,4.20
2023-05-25T16:20:08.121Z,4.40
2023-05-25T16:22:11.066Z,4.73
2023-05-25T16:24:13.262Z,4.03
2023-05-25T16:26:15.540Z,4.20
2023-05-25T16:28:17.955Z,4.13
2023-05-25T16:30:20.388Z,3.97
2023-05-25T16:32:22.636Z,4.47
2023-05-25T16:34:25.175Z,4.70
2023-05-25T16:36:27.427Z,4.43
2023-05-25T16:38:29.680Z,4.00
2023-05-25T16:40:33.624Z,4.60
2023-05-25T16:42:35.958Z,4.40
2023-05-25T16:44:38.157Z,4.77
2023-05-25T16:46:40.522Z,4.57
2023-05-25T16:48:42.897Z,5.10
2023-05-25T16:50:45.155Z,4.90
2023-05-25T16:52:47.389Z,5.13
2023-05-25T16:54:49.597Z,4.37
2023-05-25T16:56:51.898Z,5.43
2023-05-25T16:58:54.079Z,4.07
2023-05-25T17:00:56.335Z,4.80
2023-05-25T17:02:58.716Z,4.40
2023-05-25T17:05:01.018Z,4.37
2023-05-25T17:07:03.202Z,4.33
2023-05-25T17:09:05.441Z,4.70
2023-05-25T17:11:07.656Z,4.17
2023-05-25T17:13:09.966Z,3.93
2023-05-25T17:15:15.992Z,4.27
2023-05-25T17:17:18.318Z,4.97
2023-05-25T17:19:20.575Z,4.90
2023-05-25T17:21:22.985Z,4.30
2023-05-25T17:23:25.225Z,5.00
2023-05-25T17:25:28.304Z,3.87
2023-05-25T17:27:32.243Z,4.93
2023-05-25T17:29:34.596Z,5.90
2023-05-25T17:31:36.838Z,4.43
2023-05-25T17:33:39.248Z,4.67
2023-05-25T17:35:41.412Z,3.97
2023-05-25T17:37:43.632Z,5.23
2023-05-25T17:39:45.839Z,5.40
2023-05-25T17:41:50.040Z,5.53
2023-05-25T17:43:52.452Z,5.00
2023-05-25T17:45:54.735Z,5.67
2023-05-25T17:47:57.444Z,6.47
2023-05-25T17:49:59.636Z,5.23
2023-05-25T17:52:02.189Z,5.30
2023-05-25T17:54:04.571Z,5.90
2023-05-25T17:56:06.960Z,6.17
2023-05-25T17:58:09.191Z,5.90
2023-05-25T18:00:12.174Z,5.50
2023-05-25T18:02:17.282Z,6.10
2023-05-25T18:04:20.180Z,6.23
2023-05-25T18:06:22.412Z,5.30
2023-05-25T18:08:24.716Z,5.73
2023-05-25T18:10:27.089Z,5.10
2023-05-25T18:12:29.309Z,5.90
2023-05-25T18:14:35.326Z,5.40
2023-05-25T18:16:39.802Z,6.27
2023-05-25T18:18:42.175Z,5.83
2023-05-25T18:20:44.595Z,4.70
2023-05-25T18:22:47.085Z,5.10
2023-05-25T18:24:49.284Z,5.40
2023-05-25T18:26:51.574Z,6.23
2023-05-25T18:28:53.921Z,5.83
2023-05-25T18:30:56.175Z,6.37
2023-05-25T18:32:58.698Z,5.73
2023-05-25T18:35:01.062Z,5.83
2023-05-25T18:37:03.335Z,6.30
2023-05-25T18:39:05.563Z,6.40
2023-05-25T18:41:07.888Z,5.83
2023-05-25T18:43:10.177Z,6.23
2023-05-25T18:45:12.441Z,5.90
2023-05-25T18:47:14.765Z,6.00
2023-05-25T18:49:17.003Z,6.23
2023-05-25T18:51:23.109Z,5.90
2023-05-25T18:53:25.428Z,5.60
2023-05-25T18:55:28.588Z,6.13
2023-05-25T18:57:30.845Z,6.07
2023-05-25T18:59:33.899Z,5.73
2023-05-25T19:01:36.184Z,6.80
2023-05-25T19:03:38.535Z,6.90
2023-05-25T19:05:40.793Z,6.00
2023-05-25T19:07:58.415Z,6.50
2023-05-25T19:10:01.562Z,6.57
2023-05-25T19:12:04.764Z,5.83
2023-05-25T19:14:07.088Z,6.27
2023-05-25T19:16:09.486Z,6.20
2023-05-25T19:18:11.745Z,6.30
2023-05-25T19:20:14.212Z,6.40
2023-05-25T19:22:16.364Z,7.30
2023-05-25T19:24:18.734Z,6.37
2023-05-25T19:26:20.977Z,7.50
2023-05-25T19:28:23.265Z,6.77
2023-05-25T19:30:25.538Z,6.30
2023-05-25T19:32:27.829Z,6.03
2023-05-25T19:34:30.030Z,7.87
2023-05-25T19:36:32.779Z,7.57
2023-05-25T19:38:41.432Z,6.40
2023-05-25T19:40:44.504Z,7.20
2023-05-25T19:42:46.662Z,6.13
2023-05-25T19:44:48.979Z,6.20
2023-05-25T19:46:51.177Z,6.90
2023-05-25T19:48:53.467Z,6.77
2023-05-25T19:50:55.718Z,7.40
2023-05-25T19:52:58.709Z,7.03
2023-05-25T19:55:00.930Z,7.43
2023-05-25T19:57:03.307Z,5.40
2023-05-25T19:59:05.630Z,7.67
2023-05-25T20:01:07.970Z,6.90
2023-05-25T20:03:10.569Z,6.60
2023-05-25T20:05:13.088Z,7.60
2023-05-25T20:07:15.491Z,6.40
2023-05-25T20:09:17.814Z,6.97
2023-05-25T20:11:20.095Z,6.47
2023-05-25T20:13:22.316Z,7.07
2023-05-25T20:15:24.563Z,7.93
2023-05-25T20:17:27.148Z,7.00
2023-05-25T20:19:29.753Z,6.80
2023-05-25T20:21:32.014Z,7.33
2023-05-25T20:23:34.173Z,7.27
2023-05-25T20:25:36.842Z,6.70
2023-05-25T20:27:39.046Z,7.47
2023-05-25T20:29:41.992Z,7.40
2023-05-25T20:31:44.258Z,7.37
2023-05-25T20:33:46.740Z,7.60
2023-05-25T20:35:49.041Z,8.40
2023-05-25T20:37:51.389Z,7.47
2023-05-25T20:39:53.684Z,7.27
2023-05-25T20:41:56.065Z,8.97
2023-05-25T20:43:58.309Z,8.53
2023-05-25T20:46:00.716Z,8.07
2023-05-25T20:48:04.071Z,8.07
2023-05-25T20:50:06.830Z,9.03
2023-05-25T20:52:09.028Z,8.17
2023-05-25T20:54:11.288Z,7.90
2023-05-25T20:56:13.493Z,8.27
2023-05-25T20:58:15.715Z,9.53
2023-05-25T21:00:18.619Z,9.33
2023-05-25T21:02:20.937Z,8.70
2023-05-25T21:04:23.203Z,9.70
2023-05-25T21:06:26.308Z,9.53
2023-05-25T21:08:28.575Z,9.07
2023-05-25T21:10:30.878Z,9.23
2023-05-25T21:12:33.091Z,9.10
2023-05-25T21:14:35.780Z,11.27
2023-05-25T21:16:38.063Z,10.10
2023-05-25T21:18:40.452Z,9.93
2023-05-25T21:20:42.785Z,8.50
2023-05-25T21:22:45.195Z,9.03
2023-05-25T21:24:47.972Z,8.33
2023-05-25T21:26:50.137Z,8.60
2023-05-25T21:28:52.290Z,8.33
2023-05-25T21:30:54.532Z,9.57
2023-05-25T21:32:56.802Z,9.17
2023-05-25T21:34:59.137Z,7.80
2023-05-25T21:37:01.375Z,8.10
2023-05-25T21:39:03.775Z,7.90
2023-05-25T21:41:06.406Z,8.63
2023-05-25T21:43:09.239Z,8.90
2023-05-25T21:45:11.535Z,8.30
2023-05-25T21:47:13.896Z,8.20
2023-05-25T21:49:16.423Z,8.50
2023-05-25T21:51:18.634Z,8.07
2023-05-25T21:53:20.993Z,7.70
2023-05-25T21:55:23.289Z,8.20
2023-05-25T21:57:25.594Z,8.30
2023-05-25T21:59:27.839Z,8.17
2023-05-25T22:01:30.073Z,8.80
2023-05-25T22:03:32.443Z,8.23
2023-05-25T22:05:34.786Z,8.57
2023-05-25T22:07:37.184Z,7.00
2023-05-25T22:09:39.433Z,8.83
2023-05-25T22:11:41.742Z,8.67
2023-05-25T22:13:43.928Z,8.00
2023-05-25T22:15:46.527Z,8.13
2023-05-25T22:17:48.920Z,8.27
2023-05-25T22:20:03.048Z,9.43
2023-05-25T22:22:08.529Z,8.03
2023-05-25T22:24:10.824Z,8.17
2023-05-25T22:26:13.123Z,7.67
2023-05-25T22:28:15.379Z,8.40
2023-05-25T22:30:17.604Z,9.10
2023-05-25T22:32:19.742Z,8.40
2023-05-25T22:34:21.908Z,8.37
2023-05-25T22:36:24.179Z,10.50
2023-05-25T22:38:26.264Z,8.30
2023-05-25T22:40:28.303Z,8.73
2023-05-25T22:42:30.460Z,9.10
2023-05-25T22:44:34.722Z,8.33
2023-05-25T22:46:36.906Z,8.17
2023-05-25T22:48:38.977Z,7.93
2023-05-25T22:50:41.206Z,8.87
2023-05-25T22:52:43.495Z,8.37
2023-05-25T22:54:45.506Z,7.87
2023-05-25T22:56:47.689Z,8.10
2023-05-25T22:58:49.738Z,7.77
2023-05-25T23:00:51.757Z,8.63
2023-05-25T23:02:53.935Z,7.90
2023-05-25T23:04:56.013Z,9.17
2023-05-25T23:06:58.083Z,7.83
2023-05-25T23:09:00.370Z,8.70
2023-05-25T23:11:02.396Z,8.50
2023-05-25T23:13:06.257Z,8.33
2023-05-25T23:15:09.435Z,8.43
2023-05-25T23:17:11.484Z,8.17
2023-05-25T23:19:13.551Z,8.50
2023-05-25T23:21:15.623Z,9.40
2023-05-25T23:23:17.662Z,9.87
2023-05-25T23:25:20.110Z,8.90
2023-05-25T23:27:22.232Z,8.30
2023-05-25T23:29:24.224Z,8.53
2023-05-25T23:31:26.310Z,9.37
2023-05-25T23:33:29.272Z,8.90
2023-05-25T23:35:31.445Z,8.13
2023-05-25T23:37:33.630Z,8.33
2023-05-25T23:39:35.665Z,8.00
2023-05-25T23:41:38.012Z,9.23
2023-05-25T23:43:40.063Z,8.53
2023-05-25T23:45:42.280Z,7.93
2023-05-25T23:47:44.427Z,8.43
2023-05-25T23:49:46.498Z,9.23
2023-05-25T23:51:48.536Z,9.33
2023-05-25T23:53:50.710Z,9.73
2023-05-25T23:55:52.730Z,8.80
2023-05-25T23:57:54.990Z,9.80
2023-05-25T23:59:57.218Z,8.43
